sensor_id;sensor_type;location;lat;lon;timestamp;P1;durP1;ratioP1;P2;durP2;ratioP2
42972;SDS011;28610;51.214;6.962;2023-06-14T00:02:15;11.32;;;7.10;;
42972;SDS011;28610;51.214;6.962;2023-06-14T00:05:01;11.30;;;6.70;;
42972;SDS011;28610;51.214;6.962;2023-06-14T00:07:47;11.00;;;6.55;;
42972;SDS011;28610;51.214;6.962;2023-06-14T00:10:32;11.90;;;6.88;;
42972;SDS011;28610;51.214;6.962;2023-06-14T00:13:18;10.35;;;6.95;;
42972;SDS011;28610;51.214;6.962;2023-06-14T00:16:06;12.32;;;6.45;;
42972;SDS011;28610;51.214;6.962;2023-06-14T00:18:51;11.68;;;6.38;;
42972;SDS011;28610;51.214;6.962;2023-06-14T00:21:37;11.65;;;6.63;;
42972;SDS011;28610;51.214;6.962;2023-06-14T00:24:23;11.63;;;6.68;;
42972;SDS011;28610;51.214;6.962;2023-06-14T00:27:08;13.18;;;7.15;;
42972;SDS011;28610;51.214;6.962;2023-06-14T00:29:54;12.02;;;6.70;;
42972;SDS011;28610;51.214;6.962;2023-06-14T00:32:43;10.25;;;6.30;;
42972;SDS011;28610;51.214;6.962;2023-06-14T00:35:29;10.38;;;6.63;;
42972;SDS011;28610;51.214;6.962;2023-06-14T00:38:14;13.07;;;6.70;;
42972;SDS011;28610;51.214;6.962;2023-06-14T00:41:00;11.07;;;6.40;;
42972;SDS011;28610;51.214;6.962;2023-06-14T00:43:46;12.57;;;7.13;;
42972;SDS011;28610;51.214;6.962;2023-06-14T00:46:31;11.77;;;7.00;;
42972;SDS011;28610;51.214;6.962;2023-06-14T00:49:18;11.98;;;6.95;;
42972;SDS011;28610;51.214;6.962;2023-06-14T00:52:05;11.98;;;6.97;;
42972;SDS011;28610;51.214;6.962;2023-06-14T00:54:51;10.23;;;6.07;;
42972;SDS011;28610;51.214;6.962;2023-06-14T00:57:36;11.50;;;6.43;;
42972;SDS011;28610;51.214;6.962;2023-06-14T01:00:23;10.95;;;6.22;;
42972;SDS011;28610;51.214;6.962;2023-06-14T01:03:09;12.35;;;6.82;;
42972;SDS011;28610;51.214;6.962;2023-06-14T01:05:59;10.38;;;6.45;;
42972;SDS011;28610;51.214;6.962;2023-06-14T01:08:50;10.15;;;6.55;;
42972;SDS011;28610;51.214;6.962;2023-06-14T01:11:38;13.35;;;6.55;;
42972;SDS011;28610;51.214;6.962;2023-06-14T01:14:26;11.50;;;7.13;;
42972;SDS011;28610;51.214;6.962;2023-06-14T01:17:13;12.82;;;7.40;;
42972;SDS011;28610;51.214;6.962;2023-06-14T01:20:00;11.82;;;7.15;;
42972;SDS011;28610;51.214;6.962;2023-06-14T01:22:54;11.25;;;7.18;;
42972;SDS011;28610;51.214;6.962;2023-06-14T01:25:40;15.48;;;7.18;;
42972;SDS011;28610;51.214;6.962;2023-06-14T01:28:28;12.68;;;7.68;;
42972;SDS011;28610;51.214;6.962;2023-06-14T01:31:16;11.68;;;7.07;;
42972;SDS011;28610;51.214;6.962;2023-06-14T01:34:03;12.23;;;7.57;;
42972;SDS011;28610;51.214;6.962;2023-06-14T01:36:49;12.50;;;7.50;;
42972;SDS011;28610;51.214;6.962;2023-06-14T01:39:36;12.35;;;7.65;;
42972;SDS011;28610;51.214;6.962;2023-06-14T01:42:22;12.55;;;6.80;;
42972;SDS011;28610;51.214;6.962;2023-06-14T01:45:09;16.05;;;7.13;;
42972;SDS011;28610;51.214;6.962;2023-06-14T01:47:54;13.45;;;7.35;;
42972;SDS011;28610;51.214;6.962;2023-06-14T01:50:41;12.45;;;7.00;;
42972;SDS011;28610;51.214;6.962;2023-06-14T01:53:27;11.43;;;7.05;;
42972;SDS011;28610;51.214;6.962;2023-06-14T01:56:14;13.05;;;7.20;;
42972;SDS011;28610;51.214;6.962;2023-06-14T01:58:59;10.38;;;6.82;;
42972;SDS011;28610;51.214;6.962;2023-06-14T02:01:45;12.45;;;7.10;;
42972;SDS011;28610;51.214;6.962;2023-06-14T02:04:31;11.90;;;7.10;;
42972;SDS011;28610;51.214;6.962;2023-06-14T02:07:16;13.45;;;7.18;;
42972;SDS011;28610;51.214;6.962;2023-06-14T02:10:02;13.13;;;7.40;;
42972;SDS011;28610;51.214;6.962;2023-06-14T02:12:49;13.15;;;7.20;;
42972;SDS011;28610;51.214;6.962;2023-06-14T02:15:36;12.55;;;7.20;;
42972;SDS011;28610;51.214;6.962;2023-06-14T02:18:22;11.88;;;7.40;;
42972;SDS011;28610;51.214;6.962;2023-06-14T02:21:08;14.73;;;7.20;;
42972;SDS011;28610;51.214;6.962;2023-06-14T02:23:54;12.27;;;7.15;;
42972;SDS011;28610;51.214;6.962;2023-06-14T02:26:39;13.00;;;7.22;;
42972;SDS011;28610;51.214;6.962;2023-06-14T02:29:27;16.60;;;7.45;;
42972;SDS011;28610;51.214;6.962;2023-06-14T02:32:13;14.43;;;7.63;;
42972;SDS011;28610;51.214;6.962;2023-06-14T02:34:58;12.55;;;7.57;;
42972;SDS011;28610;51.214;6.962;2023-06-14T02:37:44;11.82;;;7.13;;
42972;SDS011;28610;51.214;6.962;2023-06-14T02:40:30;13.65;;;7.30;;
42972;SDS011;28610;51.214;6.962;2023-06-14T02:43:15;14.70;;;7.25;;
42972;SDS011;28610;51.214;6.962;2023-06-14T02:46:03;12.52;;;7.15;;
42972;SDS011;28610;51.214;6.962;2023-06-14T02:48:48;11.82;;;6.85;;
42972;SDS011;28610;51.214;6.962;2023-06-14T02:51:34;13.23;;;7.15;;
42972;SDS011;28610;51.214;6.962;2023-06-14T02:54:19;13.32;;;7.38;;
42972;SDS011;28610;51.214;6.962;2023-06-14T02:57:05;12.38;;;7.20;;
42972;SDS011;28610;51.214;6.962;2023-06-14T02:59:51;13.18;;;6.80;;
42972;SDS011;28610;51.214;6.962;2023-06-14T03:02:38;11.68;;;7.10;;
42972;SDS011;28610;51.214;6.962;2023-06-14T03:05:26;12.75;;;6.88;;
42972;SDS011;28610;51.214;6.962;2023-06-14T03:08:12;11.00;;;6.50;;
42972;SDS011;28610;51.214;6.962;2023-06-14T03:11:00;12.27;;;6.90;;
42972;SDS011;28610;51.214;6.962;2023-06-14T03:13:46;13.73;;;7.32;;
42972;SDS011;28610;51.214;6.962;2023-06-14T03:16:31;11.55;;;6.97;;
42972;SDS011;28610;51.214;6.962;2023-06-14T03:19:18;11.85;;;6.80;;
42972;SDS011;28610;51.214;6.962;2023-06-14T03:22:04;11.40;;;6.78;;
42972;SDS011;28610;51.214;6.962;2023-06-14T03:24:51;12.55;;;6.72;;
42972;SDS011;28610;51.214;6.962;2023-06-14T03:27:37;12.50;;;7.03;;
42972;SDS011;28610;51.214;6.962;2023-06-14T03:30:23;12.60;;;6.95;;
42972;SDS011;28610;51.214;6.962;2023-06-14T03:33:08;11.73;;;7.10;;
42972;SDS011;28610;51.214;6.962;2023-06-14T03:35:55;11.23;;;6.82;;
42972;SDS011;28610;51.214;6.962;2023-06-14T03:38:41;11.48;;;6.82;;
42972;SDS011;28610;51.214;6.962;2023-06-14T03:41:27;14.30;;;6.70;;
42972;SDS011;28610;51.214;6.962;2023-06-14T03:44:13;13.20;;;7.35;;
42972;SDS011;28610;51.214;6.962;2023-06-14T03:46:59;12.43;;;6.93;;
42972;SDS011;28610;51.214;6.962;2023-06-14T03:49:45;11.90;;;6.55;;
42972;SDS011;28610;51.214;6.962;2023-06-14T03:52:32;10.52;;;6.85;;
42972;SDS011;28610;51.214;6.962;2023-06-14T03:55:18;11.88;;;6.53;;
42972;SDS011;28610;51.214;6.962;2023-06-14T03:58:04;11.88;;;6.45;;
42972;SDS011;28610;51.214;6.962;2023-06-14T04:00:49;12.38;;;6.63;;
42972;SDS011;28610;51.214;6.962;2023-06-14T04:03:35;11.75;;;6.53;;
42972;SDS011;28610;51.214;6.962;2023-06-14T04:06:21;15.02;;;6.93;;
42972;SDS011;28610;51.214;6.962;2023-06-14T04:09:10;12.57;;;6.53;;
42972;SDS011;28610;51.214;6.962;2023-06-14T04:11:55;15.43;;;6.78;;
42972;SDS011;28610;51.214;6.962;2023-06-14T04:14:41;10.95;;;6.40;;
42972;SDS011;28610;51.214;6.962;2023-06-14T04:17:26;11.25;;;6.70;;
42972;SDS011;28610;51.214;6.962;2023-06-14T04:20:12;13.30;;;6.43;;
42972;SDS011;28610;51.214;6.962;2023-06-14T04:23:10;13.25;;;6.32;;
42972;SDS011;28610;51.214;6.962;2023-06-14T04:25:58;13.30;;;6.57;;
42972;SDS011;28610;51.214;6.962;2023-06-14T04:28:45;14.32;;;6.80;;
42972;SDS011;28610;51.214;6.962;2023-06-14T04:31:31;15.15;;;6.18;;
42972;SDS011;28610;51.214;6.962;2023-06-14T04:34:17;9.73;;;6.32;;
42972;SDS011;28610;51.214;6.962;2023-06-14T04:37:05;16.75;;;6.47;;
42972;SDS011;28610;51.214;6.962;2023-06-14T04:39:51;17.17;;;6.45;;
42972;SDS011;28610;51.214;6.962;2023-06-14T04:42:38;11.05;;;5.88;;
42972;SDS011;28610;51.214;6.962;2023-06-14T04:45:28;12.57;;;6.13;;
42972;SDS011;28610;51.214;6.962;2023-06-14T04:48:15;15.70;;;6.13;;
42972;SDS011;28610;51.214;6.962;2023-06-14T04:51:03;13.05;;;5.82;;
42972;SDS011;28610;51.214;6.962;2023-06-14T04:53:49;12.88;;;5.95;;
42972;SDS011;28610;51.214;6.962;2023-06-14T04:56:34;11.35;;;5.80;;
42972;SDS011;28610;51.214;6.962;2023-06-14T04:59:22;18.48;;;6.32;;
42972;SDS011;28610;51.214;6.962;2023-06-14T05:02:07;11.23;;;6.22;;
42972;SDS011;28610;51.214;6.962;2023-06-14T05:04:53;14.63;;;6.10;;
42972;SDS011;28610;51.214;6.962;2023-06-14T05:07:40;11.90;;;5.65;;
42972;SDS011;28610;51.214;6.962;2023-06-14T05:10:26;13.30;;;5.45;;
42972;SDS011;28610;51.214;6.962;2023-06-14T05:13:11;11.13;;;5.78;;
42972;SDS011;28610;51.214;6.962;2023-06-14T05:15:58;12.85;;;6.07;;
42972;SDS011;28610;51.214;6.962;2023-06-14T05:18:44;14.07;;;5.63;;
42972;SDS011;28610;51.214;6.962;2023-06-14T05:21:31;13.43;;;5.60;;
42972;SDS011;28610;51.214;6.962;2023-06-14T05:24:18;12.70;;;5.32;;
42972;SDS011;28610;51.214;6.962;2023-06-14T05:27:04;11.65;;;5.43;;
42972;SDS011;28610;51.214;6.962;2023-06-14T05:29:50;9.00;;;4.80;;
42972;SDS011;28610;51.214;6.962;2023-06-14T05:32:40;10.15;;;4.93;;
42972;SDS011;28610;51.214;6.962;2023-06-14T05:35:26;9.85;;;4.75;;
42972;SDS011;28610;51.214;6.962;2023-06-14T05:38:12;9.43;;;5.18;;
42972;SDS011;28610;51.214;6.962;2023-06-14T05:40:57;12.25;;;5.03;;
42972;SDS011;28610;51.214;6.962;2023-06-14T05:43:43;11.57;;;4.85;;
42972;SDS011;28610;51.214;6.962;2023-06-14T05:46:29;11.75;;;4.88;;
42972;SDS011;28610;51.214;6.962;2023-06-14T05:49:16;11.60;;;5.00;;
42972;SDS011;28610;51.214;6.962;2023-06-14T05:52:02;15.20;;;4.82;;
42972;SDS011;28610;51.214;6.962;2023-06-14T05:54:48;16.05;;;4.97;;
42972;SDS011;28610;51.214;6.962;2023-06-14T05:57:34;11.75;;;4.93;;
42972;SDS011;28610;51.214;6.962;2023-06-14T06:00:20;13.00;;;4.85;;
42972;SDS011;28610;51.214;6.962;2023-06-14T06:03:06;11.93;;;4.78;;
42972;SDS011;28610;51.214;6.962;2023-06-14T06:05:54;12.32;;;4.88;;
42972;SDS011;28610;51.214;6.962;2023-06-14T06:08:40;9.68;;;4.63;;
42972;SDS011;28610;51.214;6.962;2023-06-14T06:11:26;17.13;;;4.97;;
42972;SDS011;28610;51.214;6.962;2023-06-14T06:14:12;12.07;;;4.85;;
42972;SDS011;28610;51.214;6.962;2023-06-14T06:16:57;11.60;;;4.70;;
42972;SDS011;28610;51.214;6.962;2023-06-14T06:19:43;15.38;;;4.40;;
42972;SDS011;28610;51.214;6.962;2023-06-14T06:22:30;8.52;;;4.28;;
42972;SDS011;28610;51.214;6.962;2023-06-14T06:25:16;9.73;;;4.60;;
42972;SDS011;28610;51.214;6.962;2023-06-14T06:28:03;9.65;;;4.35;;
42972;SDS011;28610;51.214;6.962;2023-06-14T06:30:49;10.88;;;4.28;;
42972;SDS011;28610;51.214;6.962;2023-06-14T06:33:35;17.75;;;4.35;;
42972;SDS011;28610;51.214;6.962;2023-06-14T06:36:20;7.97;;;3.97;;
42972;SDS011;28610;51.214;6.962;2023-06-14T06:39:07;12.60;;;4.05;;
42972;SDS011;28610;51.214;6.962;2023-06-14T06:41:53;9.15;;;3.50;;
42972;SDS011;28610;51.214;6.962;2023-06-14T06:44:39;8.43;;;3.50;;
42972;SDS011;28610;51.214;6.962;2023-06-14T06:47:25;7.90;;;3.70;;
42972;SDS011;28610;51.214;6.962;2023-06-14T06:50:10;7.35;;;3.47;;
42972;SDS011;28610;51.214;6.962;2023-06-14T06:52:56;7.85;;;2.90;;
42972;SDS011;28610;51.214;6.962;2023-06-14T06:55:43;6.55;;;3.20;;
42972;SDS011;28610;51.214;6.962;2023-06-14T06:58:29;8.07;;;2.90;;
42972;SDS011;28610;51.214;6.962;2023-06-14T07:01:14;6.18;;;2.95;;
42972;SDS011;28610;51.214;6.962;2023-06-14T07:04:00;5.72;;;3.05;;
42972;SDS011;28610;51.214;6.962;2023-06-14T07:06:46;9.32;;;3.20;;
42972;SDS011;28610;51.214;6.962;2023-06-14T07:09:32;8.35;;;3.30;;
42972;SDS011;28610;51.214;6.962;2023-06-14T07:12:19;7.85;;;2.97;;
42972;SDS011;28610;51.214;6.962;2023-06-14T07:15:05;10.38;;;3.28;;
42972;SDS011;28610;51.214;6.962;2023-06-14T07:17:52;8.88;;;3.65;;
42972;SDS011;28610;51.214;6.962;2023-06-14T07:20:41;14.13;;;3.50;;
42972;SDS011;28610;51.214;6.962;2023-06-14T07:23:27;10.20;;;3.30;;
42972;SDS011;28610;51.214;6.962;2023-06-14T07:26:12;5.72;;;2.90;;
42972;SDS011;28610;51.214;6.962;2023-06-14T07:28:59;8.80;;;2.90;;
42972;SDS011;28610;51.214;6.962;2023-06-14T07:31:45;4.95;;;3.00;;
42972;SDS011;28610;51.214;6.962;2023-06-14T07:34:31;7.78;;;2.83;;
42972;SDS011;28610;51.214;6.962;2023-06-14T07:37:16;5.75;;;2.60;;
42972;SDS011;28610;51.214;6.962;2023-06-14T07:40:02;8.65;;;2.60;;
42972;SDS011;28610;51.214;6.962;2023-06-14T07:42:50;8.82;;;3.00;;
42972;SDS011;28610;51.214;6.962;2023-06-14T07:45:39;8.52;;;2.72;;
42972;SDS011;28610;51.214;6.962;2023-06-14T07:48:24;6.70;;;2.90;;
42972;SDS011;28610;51.214;6.962;2023-06-14T07:51:10;6.90;;;2.58;;
42972;SDS011;28610;51.214;6.962;2023-06-14T07:53:55;7.40;;;2.70;;
42972;SDS011;28610;51.214;6.962;2023-06-14T07:56:41;5.95;;;2.67;;
42972;SDS011;28610;51.214;6.962;2023-06-14T07:59:27;12.38;;;2.85;;
42972;SDS011;28610;51.214;6.962;2023-06-14T08:02:14;10.52;;;2.55;;
42972;SDS011;28610;51.214;6.962;2023-06-14T08:05:00;5.65;;;2.33;;
42972;SDS011;28610;51.214;6.962;2023-06-14T08:07:46;5.15;;;2.60;;
42972;SDS011;28610;51.214;6.962;2023-06-14T08:10:31;7.95;;;2.80;;
42972;SDS011;28610;51.214;6.962;2023-06-14T08:13:17;4.97;;;2.50;;
42972;SDS011;28610;51.214;6.962;2023-06-14T08:16:03;3.75;;;2.70;;
42972;SDS011;28610;51.214;6.962;2023-06-14T08:18:50;5.28;;;2.55;;
42972;SDS011;28610;51.214;6.962;2023-06-14T08:21:36;5.65;;;2.40;;
42972;SDS011;28610;51.214;6.962;2023-06-14T08:24:21;8.25;;;2.47;;
42972;SDS011;28610;51.214;6.962;2023-06-14T08:27:08;5.47;;;2.30;;
42972;SDS011;28610;51.214;6.962;2023-06-14T08:29:53;4.55;;;2.30;;
42972;SDS011;28610;51.214;6.962;2023-06-14T08:32:39;5.95;;;2.40;;
42972;SDS011;28610;51.214;6.962;2023-06-14T08:35:26;5.03;;;2.20;;
42972;SDS011;28610;51.214;6.962;2023-06-14T08:38:12;6.88;;;2.30;;
42972;SDS011;28610;51.214;6.962;2023-06-14T08:40:57;7.30;;;2.45;;
42972;SDS011;28610;51.214;6.962;2023-06-14T08:43:43;3.17;;;2.15;;
42972;SDS011;28610;51.214;6.962;2023-06-14T08:46:29;6.43;;;2.17;;
42972;SDS011;28610;51.214;6.962;2023-06-14T08:49:16;3.35;;;2.17;;
42972;SDS011;28610;51.214;6.962;2023-06-14T08:52:04;4.07;;;2.40;;
42972;SDS011;28610;51.214;6.962;2023-06-14T08:54:50;3.45;;;2.00;;
42972;SDS011;28610;51.214;6.962;2023-06-14T08:57:36;4.72;;;2.10;;
42972;SDS011;28610;51.214;6.962;2023-06-14T09:00:22;5.43;;;1.90;;
42972;SDS011;28610;51.214;6.962;2023-06-14T09:03:08;3.92;;;1.92;;
42972;SDS011;28610;51.214;6.962;2023-06-14T09:05:57;7.40;;;2.28;;
42972;SDS011;28610;51.214;6.962;2023-06-14T09:08:46;5.45;;;2.20;;
42972;SDS011;28610;51.214;6.962;2023-06-14T09:11:32;11.40;;;2.10;;
42972;SDS011;28610;51.214;6.962;2023-06-14T09:14:17;7.63;;;2.45;;
42972;SDS011;28610;51.214;6.962;2023-06-14T09:17:03;7.25;;;2.20;;
42972;SDS011;28610;51.214;6.962;2023-06-14T09:19:49;5.55;;;2.30;;
42972;SDS011;28610;51.214;6.962;2023-06-14T09:22:35;5.93;;;2.03;;
42972;SDS011;28610;51.214;6.962;2023-06-14T09:25:23;4.97;;;1.88;;
42972;SDS011;28610;51.214;6.962;2023-06-14T09:28:09;4.32;;;1.95;;
42972;SDS011;28610;51.214;6.962;2023-06-14T09:30:55;3.95;;;2.20;;
42972;SDS011;28610;51.214;6.962;2023-06-14T09:33:41;5.28;;;2.25;;
42972;SDS011;28610;51.214;6.962;2023-06-14T09:36:31;4.85;;;1.92;;
42972;SDS011;28610;51.214;6.962;2023-06-14T09:39:17;5.32;;;2.28;;
42972;SDS011;28610;51.214;6.962;2023-06-14T09:42:05;5.10;;;2.17;;
42972;SDS011;28610;51.214;6.962;2023-06-14T09:45:03;3.70;;;2.10;;
42972;SDS011;28610;51.214;6.962;2023-06-14T09:47:49;3.88;;;2.13;;
42972;SDS011;28610;51.214;6.962;2023-06-14T09:50:35;9.98;;;2.50;;
42972;SDS011;28610;51.214;6.962;2023-06-14T09:53:21;7.95;;;2.50;;
42972;SDS011;28610;51.214;6.962;2023-06-14T09:56:07;4.90;;;2.17;;
42972;SDS011;28610;51.214;6.962;2023-06-14T09:58:57;4.53;;;2.10;;
42972;SDS011;28610;51.214;6.962;2023-06-14T10:01:43;10.23;;;2.20;;
42972;SDS011;28610;51.214;6.962;2023-06-14T10:04:29;4.95;;;2.30;;
42972;SDS011;28610;51.214;6.962;2023-06-14T10:07:17;5.78;;;2.25;;
42972;SDS011;28610;51.214;6.962;2023-06-14T10:10:04;4.05;;;2.10;;
42972;SDS011;28610;51.214;6.962;2023-06-14T10:12:51;4.85;;;2.20;;
42972;SDS011;28610;51.214;6.962;2023-06-14T10:15:41;3.45;;;2.03;;
42972;SDS011;28610;51.214;6.962;2023-06-14T10:18:30;6.10;;;2.17;;
42972;SDS011;28610;51.214;6.962;2023-06-14T10:21:21;5.65;;;2.30;;
42972;SDS011;28610;51.214;6.962;2023-06-14T10:24:10;5.60;;;2.05;;
42972;SDS011;28610;51.214;6.962;2023-06-14T10:26:57;10.25;;;2.17;;
42972;SDS011;28610;51.214;6.962;2023-06-14T10:30:02;5.13;;;2.10;;
42972;SDS011;28610;51.214;6.962;2023-06-14T10:33:04;5.90;;;2.00;;
42972;SDS011;28610;51.214;6.962;2023-06-14T10:35:54;4.63;;;2.17;;
42972;SDS011;28610;51.214;6.962;2023-06-14T10:38:56;4.38;;;2.00;;
42972;SDS011;28610;51.214;6.962;2023-06-14T10:41:49;4.15;;;2.55;;
42972;SDS011;28610;51.214;6.962;2023-06-14T10:44:39;6.47;;;2.25;;
42972;SDS011;28610;51.214;6.962;2023-06-14T10:47:29;6.43;;;2.38;;
42972;SDS011;28610;51.214;6.962;2023-06-14T10:50:17;6.32;;;2.38;;
42972;SDS011;28610;51.214;6.962;2023-06-14T10:53:05;6.03;;;2.50;;
42972;SDS011;28610;51.214;6.962;2023-06-14T10:56:07;3.45;;;2.22;;
42972;SDS011;28610;51.214;6.962;2023-06-14T10:58:55;4.07;;;2.05;;
42972;SDS011;28610;51.214;6.962;2023-06-14T11:01:43;6.75;;;2.40;;
42972;SDS011;28610;51.214;6.962;2023-06-14T11:04:44;6.93;;;2.13;;
42972;SDS011;28610;51.214;6.962;2023-06-14T11:07:36;6.78;;;2.30;;
42972;SDS011;28610;51.214;6.962;2023-06-14T11:10:26;13.65;;;3.00;;
42972;SDS011;28610;51.214;6.962;2023-06-14T11:13:18;6.25;;;2.38;;
42972;SDS011;28610;51.214;6.962;2023-06-14T11:16:09;6.00;;;2.25;;
42972;SDS011;28610;51.214;6.962;2023-06-14T11:18:56;5.28;;;2.35;;
42972;SDS011;28610;51.214;6.962;2023-06-14T11:21:41;7.43;;;2.30;;
42972;SDS011;28610;51.214;6.962;2023-06-14T11:24:28;5.05;;;2.30;;
42972;SDS011;28610;51.214;6.962;2023-06-14T11:27:14;5.28;;;2.33;;
42972;SDS011;28610;51.214;6.962;2023-06-14T11:30:00;5.15;;;2.30;;
42972;SDS011;28610;51.214;6.962;2023-06-14T11:32:46;6.13;;;2.33;;
42972;SDS011;28610;51.214;6.962;2023-06-14T11:35:32;12.93;;;2.20;;
42972;SDS011;28610;51.214;6.962;2023-06-14T11:38:18;4.32;;;2.20;;
42972;SDS011;28610;51.214;6.962;2023-06-14T11:41:05;6.78;;;2.50;;
42972;SDS011;28610;51.214;6.962;2023-06-14T11:43:52;5.20;;;2.00;;
42972;SDS011;28610;51.214;6.962;2023-06-14T11:46:38;5.75;;;2.00;;
42972;SDS011;28610;51.214;6.962;2023-06-14T11:49:24;9.23;;;2.05;;
42972;SDS011;28610;51.214;6.962;2023-06-14T11:52:11;4.35;;;2.35;;
42972;SDS011;28610;51.214;6.962;2023-06-14T11:54:57;8.45;;;2.40;;
42972;SDS011;28610;51.214;6.962;2023-06-14T11:57:46;5.20;;;2.10;;
42972;SDS011;28610;51.214;6.962;2023-06-14T12:00:32;3.30;;;2.00;;
42972;SDS011;28610;51.214;6.962;2023-06-14T12:03:18;2.88;;;1.98;;
42972;SDS011;28610;51.214;6.962;2023-06-14T12:06:08;4.05;;;1.90;;
42972;SDS011;28610;51.214;6.962;2023-06-14T12:08:55;4.45;;;2.30;;
42972;SDS011;28610;51.214;6.962;2023-06-14T12:11:41;4.57;;;1.88;;
42972;SDS011;28610;51.214;6.962;2023-06-14T12:14:29;5.90;;;2.03;;
42972;SDS011;28610;51.214;6.962;2023-06-14T12:17:16;3.67;;;2.05;;
42972;SDS011;28610;51.214;6.962;2023-06-14T12:20:05;3.80;;;2.00;;
42972;SDS011;28610;51.214;6.962;2023-06-14T12:22:55;3.25;;;1.98;;
42972;SDS011;28610;51.214;6.962;2023-06-14T12:25:40;3.13;;;1.90;;
42972;SDS011;28610;51.214;6.962;2023-06-14T12:28:30;3.35;;;2.00;;
42972;SDS011;28610;51.214;6.962;2023-06-14T12:31:18;5.18;;;2.08;;
42972;SDS011;28610;51.214;6.962;2023-06-14T12:34:03;5.18;;;2.35;;
42972;SDS011;28610;51.214;6.962;2023-06-14T12:36:49;3.47;;;2.10;;
42972;SDS011;28610;51.214;6.962;2023-06-14T12:39:35;4.13;;;2.20;;
42972;SDS011;28610;51.214;6.962;2023-06-14T12:42:23;5.43;;;2.42;;
42972;SDS011;28610;51.214;6.962;2023-06-14T12:45:08;5.13;;;2.17;;
42972;SDS011;28610;51.214;6.962;2023-06-14T12:47:55;4.20;;;2.05;;
42972;SDS011;28610;51.214;6.962;2023-06-14T12:50:41;6.63;;;2.00;;
42972;SDS011;28610;51.214;6.962;2023-06-14T12:53:27;2.97;;;2.10;;
42972;SDS011;28610;51.214;6.962;2023-06-14T12:56:13;3.05;;;2.25;;
42972;SDS011;28610;51.214;6.962;2023-06-14T12:58:59;3.65;;;2.20;;
42972;SDS011;28610;51.214;6.962;2023-06-14T13:01:45;5.25;;;2.17;;
42972;SDS011;28610;51.214;6.962;2023-06-14T13:04:34;4.13;;;2.25;;
42972;SDS011;28610;51.214;6.962;2023-06-14T13:07:21;6.20;;;2.28;;
42972;SDS011;28610;51.214;6.962;2023-06-14T13:10:07;5.63;;;2.38;;
42972;SDS011;28610;51.214;6.962;2023-06-14T13:12:53;6.32;;;2.33;;
42972;SDS011;28610;51.214;6.962;2023-06-14T13:15:41;6.45;;;2.58;;
42972;SDS011;28610;51.214;6.962;2023-06-14T13:18:27;9.82;;;2.72;;
42972;SDS011;28610;51.214;6.962;2023-06-14T13:21:14;6.30;;;2.25;;
42972;SDS011;28610;51.214;6.962;2023-06-14T13:24:00;3.70;;;2.42;;
42972;SDS011;28610;51.214;6.962;2023-06-14T13:26:46;6.00;;;2.40;;
42972;SDS011;28610;51.214;6.962;2023-06-14T13:29:31;6.93;;;2.60;;
42972;SDS011;28610;51.214;6.962;2023-06-14T13:32:20;6.97;;;2.65;;
42972;SDS011;28610;51.214;6.962;2023-06-14T13:35:06;8.27;;;2.58;;
42972;SDS011;28610;51.214;6.962;2023-06-14T13:37:53;5.05;;;2.40;;
42972;SDS011;28610;51.214;6.962;2023-06-14T13:40:39;5.95;;;2.53;;
42972;SDS011;28610;51.214;6.962;2023-06-14T13:43:25;393.42;;;32.28;;
42972;SDS011;28610;51.214;6.962;2023-06-14T13:46:10;197.85;;;16.58;;
42972;SDS011;28610;51.214;6.962;2023-06-14T13:48:56;1637.20;;;110.40;;
42972;SDS011;28610;51.214;6.962;2023-06-14T13:51:43;1186.43;;;88.28;;
42972;SDS011;28610;51.214;6.962;2023-06-14T13:54:30;1266.20;;;146.73;;
42972;SDS011;28610;51.214;6.962;2023-06-14T13:57:16;381.40;;;30.25;;
42972;SDS011;28610;51.214;6.962;2023-06-14T14:00:03;1397.82;;;135.25;;
42972;SDS011;28610;51.214;6.962;2023-06-14T14:02:48;242.55;;;19.77;;
42972;SDS011;28610;51.214;6.962;2023-06-14T14:05:35;1999.90;;;262.30;;
42972;SDS011;28610;51.214;6.962;2023-06-14T14:08:21;599.70;;;52.38;;
42972;SDS011;28610;51.214;6.962;2023-06-14T14:11:08;309.00;;;39.67;;
42972;SDS011;28610;51.214;6.962;2023-06-14T14:13:53;557.53;;;41.17;;
42972;SDS011;28610;51.214;6.962;2023-06-14T14:16:40;600.78;;;41.58;;
42972;SDS011;28610;51.214;6.962;2023-06-14T14:19:26;1999.90;;;240.10;;
42972;SDS011;28610;51.214;6.962;2023-06-14T14:22:12;408.30;;;26.35;;
42972;SDS011;28610;51.214;6.962;2023-06-14T14:24:57;301.90;;;22.85;;
42972;SDS011;28610;51.214;6.962;2023-06-14T14:27:44;1143.68;;;106.60;;
42972;SDS011;28610;51.214;6.962;2023-06-14T14:30:30;1746.32;;;150.57;;
42972;SDS011;28610;51.214;6.962;2023-06-14T14:33:16;1999.90;;;284.25;;
42972;SDS011;28610;51.214;6.962;2023-06-14T14:36:02;1711.60;;;184.45;;
42972;SDS011;28610;51.214;6.962;2023-06-14T14:38:48;1190.43;;;101.80;;
42972;SDS011;28610;51.214;6.962;2023-06-14T14:41:35;1167.30;;;106.13;;
42972;SDS011;28610;51.214;6.962;2023-06-14T14:44:23;1569.07;;;132.38;;
42972;SDS011;28610;51.214;6.962;2023-06-14T14:47:08;910.88;;;82.38;;
42972;SDS011;28610;51.214;6.962;2023-06-14T14:49:54;1999.90;;;253.27;;
42972;SDS011;28610;51.214;6.962;2023-06-14T14:52:40;457.98;;;53.08;;
42972;SDS011;28610;51.214;6.962;2023-06-14T14:55:26;80.70;;;11.77;;
42972;SDS011;28610;51.214;6.962;2023-06-14T14:58:11;368.60;;;38.63;;
42972;SDS011;28610;51.214;6.962;2023-06-14T15:01:02;1461.40;;;164.57;;
42972;SDS011;28610;51.214;6.962;2023-06-14T15:03:49;249.35;;;19.20;;
42972;SDS011;28610;51.214;6.962;2023-06-14T15:06:35;691.05;;;79.18;;
42972;SDS011;28610;51.214;6.962;2023-06-14T15:09:23;343.02;;;37.20;;
42972;SDS011;28610;51.214;6.962;2023-06-14T15:12:10;362.10;;;25.05;;
42972;SDS011;28610;51.214;6.962;2023-06-14T15:14:56;1018.53;;;121.28;;
42972;SDS011;28610;51.214;6.962;2023-06-14T15:17:42;98.90;;;8.15;;
42972;SDS011;28610;51.214;6.962;2023-06-14T15:20:28;76.72;;;9.23;;
42972;SDS011;28610;51.214;6.962;2023-06-14T15:23:14;170.13;;;17.35;;
42972;SDS011;28610;51.214;6.962;2023-06-14T15:26:03;394.75;;;34.38;;
42972;SDS011;28610;51.214;6.962;2023-06-14T15:28:48;1522.70;;;157.18;;
42972;SDS011;28610;51.214;6.962;2023-06-14T15:31:34;222.38;;;23.85;;
42972;SDS011;28610;51.214;6.962;2023-06-14T15:34:21;549.78;;;42.65;;
42972;SDS011;28610;51.214;6.962;2023-06-14T15:37:07;375.88;;;29.38;;
42972;SDS011;28610;51.214;6.962;2023-06-14T15:39:53;519.65;;;45.17;;
42972;SDS011;28610;51.214;6.962;2023-06-14T15:42:38;97.57;;;9.20;;
42972;SDS011;28610;51.214;6.962;2023-06-14T15:45:24;195.85;;;20.10;;
42972;SDS011;28610;51.214;6.962;2023-06-14T15:48:09;59.15;;;9.73;;
42972;SDS011;28610;51.214;6.962;2023-06-14T15:50:56;493.15;;;51.97;;
42972;SDS011;28610;51.214;6.962;2023-06-14T15:53:42;167.63;;;14.38;;
42972;SDS011;28610;51.214;6.962;2023-06-14T15:56:27;556.05;;;71.15;;
42972;SDS011;28610;51.214;6.962;2023-06-14T15:59:13;176.23;;;22.85;;
42972;SDS011;28610;51.214;6.962;2023-06-14T16:01:59;1288.68;;;137.70;;
42972;SDS011;28610;51.214;6.962;2023-06-14T16:04:45;204.05;;;23.40;;
42972;SDS011;28610;51.214;6.962;2023-06-14T16:07:32;78.47;;;8.90;;
42972;SDS011;28610;51.214;6.962;2023-06-14T16:10:18;223.27;;;17.42;;
42972;SDS011;28610;51.214;6.962;2023-06-14T16:13:03;103.13;;;10.98;;
42972;SDS011;28610;51.214;6.962;2023-06-14T16:15:49;224.52;;;21.02;;
42972;SDS011;28610;51.214;6.962;2023-06-14T16:18:35;753.40;;;72.70;;
42972;SDS011;28610;51.214;6.962;2023-06-14T16:21:20;389.48;;;43.10;;
42972;SDS011;28610;51.214;6.962;2023-06-14T16:24:08;116.68;;;11.35;;
42972;SDS011;28610;51.214;6.962;2023-06-14T16:26:54;816.85;;;99.05;;
42972;SDS011;28610;51.214;6.962;2023-06-14T16:29:39;258.77;;;23.27;;
42972;SDS011;28610;51.214;6.962;2023-06-14T16:32:25;394.17;;;23.48;;